Time;durP1;ratioP1;P1;durP2;ratioP2;P2;SDS_P1;SDS_P2;PMS_P1;PMS_P2;Temp;Humidity;BMP_temperature;BMP_pressure;BME280_temperature;BME280_humidity;BME280_pressure;Samples;Min_cycle;Max_cycle;Signal;HPM_P1;HPM_P2
2020/12/31 00:00:16;;;;;;;1.40;1.30;;;20.30;46.50;;;;;;5039738;28;20497;-65
2020/12/31 00:02:42;;;;;;;1.50;1.40;;;20.30;46.70;;;;;;5048939;28;21547;-67
2020/12/31 00:05:08;;;;;;;1.27;1.27;;;20.30;46.70;;;;;;5056097;28;20478;-68
2020/12/31 00:07:34;;;;;;;1.30;1.20;;;20.30;46.80;;;;;;5051923;28;20549;-67
2020/12/31 00:10:01;;;;;;;1.27;1.27;;;20.30;46.60;;;;;;5061619;28;20477;-66
2020/12/31 00:12:27;;;;;;;1.40;1.40;;;20.30;46.40;;;;;;5055074;28;20848;-67
2020/12/31 00:14:54;;;;;;;1.27;1.00;;;20.20;46.50;;;;;;5059913;28;20473;-67
2020/12/31 00:17:20;;;;;;;1.30;1.30;;;20.20;46.40;;;;;;5051529;28;20539;-66
2020/12/31 00:19:46;;;;;;;1.40;1.23;;;20.20;46.50;;;;;;5058674;28;20485;-67
2020/12/31 00:22:12;;;;;;;0.93;0.93;;;20.20;46.60;;;;;;5053143;28;20546;-66
2020/12/31 00:24:38;;;;;;;1.17;1.07;;;20.10;46.50;;;;;;5071400;28;20861;-66
2020/12/31 00:27:05;;;;;;;1.60;1.50;;;20.10;46.40;;;;;;5045556;28;20501;-66
2020/12/31 00:29:31;;;;;;;1.13;1.13;;;20.10;46.50;;;;;;5057483;28;20488;-66
2020/12/31 00:31:58;;;;;;;1.53;1.43;;;20.10;46.40;;;;;;5043123;28;20504;-67
2020/12/31 00:34:24;;;;;;;1.33;1.33;;;20.10;46.60;;;;;;5069028;28;20478;-66
2020/12/31 00:36:50;;;;;;;1.07;0.97;;;20.10;46.60;;;;;;5059941;28;20477;-66
2020/12/31 00:39:16;;;;;;;1.03;1.03;;;20.10;46.60;;;;;;5059862;28;20914;-66
2020/12/31 00:41:43;;;;;;;1.77;1.30;;;20.10;46.70;;;;;;5056238;28;21099;-66
2020/12/31 00:44:09;;;;;;;1.13;1.13;;;20.10;46.70;;;;;;5057110;28;20529;-67
2020/12/31 00:46:35;;;;;;;1.13;1.13;;;20.10;46.70;;;;;;5058915;28;20474;-67
2020/12/31 00:49:02;;;;;;;1.37;1.27;;;20.10;46.70;;;;;;5059413;28;20482;-67
2020/12/31 00:51:28;;;;;;;1.03;1.03;;;20.10;46.80;;;;;;5060605;28;20476;-66
2020/12/31 00:53:55;;;;;;;1.37;1.20;;;20.10;46.60;;;;;;5059474;28;20547;-67
2020/12/31 00:56:21;;;;;;;1.30;1.30;;;20.10;46.60;;;;;;5059430;28;20515;-67
2020/12/31 00:58:47;;;;;;;1.30;1.30;;;20.10;46.60;;;;;;5059538;28;20500;-66
2020/12/31 01:01:13;;;;;;;1.40;1.20;;;20.10;46.60;;;;;;5058324;28;20485;-67
2020/12/31 01:03:39;;;;;;;0.70;0.70;;;20.10;46.70;;;;;;5060167;28;20469;-67
2020/12/31 01:06:06;;;;;;;1.10;1.10;;;20.00;46.60;;;;;;5060515;28;20480;-66
2020/12/31 01:08:32;;;;;;;1.00;1.00;;;20.00;46.60;;;;;;5059711;28;20481;-67
2020/12/31 01:10:58;;;;;;;1.07;1.07;;;20.00;46.60;;;;;;5059816;28;20485;-67
2020/12/31 01:13:25;;;;;;;1.00;1.00;;;20.00;46.60;;;;;;5058809;28;20478;-67
2020/12/31 01:15:51;;;;;;;1.00;0.90;;;20.00;46.60;;;;;;5059413;28;20481;-67
2020/12/31 01:18:17;;;;;;;1.23;1.13;;;20.00;46.60;;;;;;5060099;28;20478;-66
2020/12/31 01:20:43;;;;;;;1.10;1.10;;;20.00;46.60;;;;;;5058863;28;21220;-67
2020/12/31 01:23:10;;;;;;;1.00;1.00;;;20.00;46.60;;;;;;5059108;28;20857;-67
2020/12/31 01:25:36;;;;;;;0.97;0.97;;;20.00;46.60;;;;;;5059063;28;20470;-67
2020/12/31 01:28:02;;;;;;;1.07;1.00;;;20.00;46.60;;;;;;5058956;28;20551;-66
2020/12/31 01:30:29;;;;;;;0.87;0.87;;;20.00;46.50;;;;;;5057369;28;21068;-67
2020/12/31 01:32:55;;;;;;;0.90;0.90;;;20.00;47.40;;;;;;5053911;28;20503;-67
2020/12/31 01:35:21;;;;;;;0.93;0.90;;;20.00;46.60;;;;;;5068308;28;20498;-67
2020/12/31 01:37:47;;;;;;;1.00;1.00;;;20.00;46.60;;;;;;5059275;28;20496;-66
2020/12/31 01:40:14;;;;;;;1.10;1.10;;;20.00;46.60;;;;;;5059584;28;21043;-66
2020/12/31 01:42:41;;;;;;;0.93;0.93;;;20.00;46.60;;;;;;5058567;28;20493;-66
2020/12/31 01:45:07;;;;;;;2.10;1.17;;;20.00;46.60;;;;;;5058603;28;21031;-66
2020/12/31 01:47:34;;;;;;;1.40;1.30;;;20.00;46.60;;;;;;5057509;28;20623;-66
2020/12/31 01:50:00;;;;;;;0.90;0.90;;;20.00;46.60;;;;;;5054914;28;20501;-67
2020/12/31 01:52:26;;;;;;;1.03;0.90;;;20.00;46.60;;;;;;5068514;28;20486;-66
2020/12/31 01:54:52;;;;;;;8.43;1.20;;;20.00;46.60;;;;;;5055842;28;20483;-67
2020/12/31 01:57:19;;;;;;;1.20;1.20;;;20.00;46.60;;;;;;5066140;28;20490;-67
2020/12/31 01:59:46;;;;;;;1.07;1.00;;;20.00;46.60;;;;;;5043521;28;20523;-66
2020/12/31 02:02:12;;;;;;;1.00;1.00;;;20.00;46.60;;;;;;5058311;28;20495;-66
2020/12/31 02:04:38;;;;;;;1.27;1.20;;;20.00;46.70;;;;;;5055373;28;21115;-66
2020/12/31 02:07:05;;;;;;;2.80;1.73;;;20.00;46.60;;;;;;5055496;28;20486;-66
2020/12/31 02:09:31;;;;;;;4.13;1.43;;;20.00;46.60;;;;;;5058298;28;20550;-67
2020/12/31 02:12:01;;;;;;;1.37;0.93;;;20.00;46.70;;;;;;5052903;28;20504;-67
2020/12/31 02:14:28;;;;;;;1.67;1.57;;;20.00;46.70;;;;;;5057543;28;22546;-67
2020/12/31 02:16:54;;;;;;;1.13;1.13;;;20.00;46.90;;;;;;5058488;28;20469;-67
2020/12/31 02:19:20;;;;;;;1.23;1.23;;;20.10;46.70;;;;;;5058651;28;20474;-67
2020/12/31 02:21:48;;;;;;;0.77;0.77;;;20.10;46.80;;;;;;5057436;28;20478;-66
2020/12/31 02:24:14;;;;;;;1.07;1.07;;;20.10;46.70;;;;;;5062952;28;20996;-67
2020/12/31 02:26:41;;;;;;;1.00;1.00;;;20.10;46.70;;;;;;5064512;28;20474;-67
2020/12/31 02:29:10;;;;;;;1.00;1.00;;;20.00;46.60;;;;;;5062592;28;20485;-68
2020/12/31 02:31:36;;;;;;;1.77;1.10;;;20.00;46.60;;;;;;5056739;28;20553;-68
2020/12/31 02:34:03;;;;;;;1.50;1.40;;;20.00;46.60;;;;;;5058442;28;20838;-68
2020/12/31 02:36:30;;;;;;;1.33;1.30;;;19.90;46.50;;;;;;5056260;28;20543;-68
2020/12/31 02:38:57;;;;;;;1.17;1.17;;;19.90;46.50;;;;;;5058194;28;20485;-67
2020/12/31 02:41:23;;;;;;;1.40;1.30;;;19.90;46.50;;;;;;5054063;28;20527;-67
2020/12/31 02:43:50;;;;;;;1.10;1.10;;;19.90;46.50;;;;;;5058915;28;20470;-68
2020/12/31 02:46:19;;;;;;;1.00;1.00;;;19.90;46.60;;;;;;5055375;28;20469;-67
2020/12/31 02:48:46;;;;;;;1.70;1.60;;;19.90;46.50;;;;;;5054751;28;20485;-67
2020/12/31 02:51:12;;;;;;;1.20;1.20;;;19.90;46.60;;;;;;5058171;28;20846;-67
2020/12/31 02:53:38;;;;;;;1.57;1.47;;;19.90;46.50;;;;;;5055779;28;20482;-67
2020/12/31 02:56:10;;;;;;;2.00;1.90;;;19.90;46.50;;;;;;5057394;28;20490;-67
2020/12/31 02:58:36;;;;;;;1.30;1.30;;;19.90;46.50;;;;;;5055483;28;20985;-67
2020/12/31 03:01:02;;;;;;;1.20;1.20;;;19.90;46.50;;;;;;5055636;28;20485;-68
2020/12/31 03:03:28;;;;;;;4.63;1.70;;;19.90;46.50;;;;;;5056804;28;21546;-68
2020/12/31 03:05:55;;;;;;;1.50;1.40;;;19.90;46.80;;;;;;5049411;28;20478;-67
2020/12/31 03:08:21;;;;;;;1.10;1.10;;;19.90;46.60;;;;;;5057236;28;20473;-68
2020/12/31 03:10:47;;;;;;;1.30;1.30;;;19.90;46.50;;;;;;5031960;28;20486;-68
2020/12/31 03:13:14;;;;;;;1.80;1.70;;;19.90;46.90;;;;;;5046414;28;20479;-67
2020/12/31 03:15:40;;;;;;;1.33;1.33;;;20.00;46.60;;;;;;5035234;28;20895;-67
2020/12/31 03:18:06;;;;;;;2.10;1.60;;;19.90;46.60;;;;;;5040939;28;21456;-67
2020/12/31 03:20:32;;;;;;;1.00;0.93;;;19.90;46.60;;;;;;5038812;28;20541;-67
2020/12/31 03:22:58;;;;;;;1.50;1.50;;;19.90;46.50;;;;;;5058917;28;20486;-67
2020/12/31 03:25:25;;;;;;;1.90;1.80;;;19.90;46.50;;;;;;5047645;28;20481;-67
2020/12/31 03:27:51;;;;;;;1.70;1.60;;;19.90;46.60;;;;;;5073380;28;20500;-65
2020/12/31 03:30:18;;;;;;;1.33;1.33;;;19.90;46.60;;;;;;5049992;28;20492;-67
2020/12/31 03:32:44;;;;;;;1.63;1.50;;;19.90;46.50;;;;;;5057793;28;20485;-67
2020/12/31 03:35:10;;;;;;;1.60;1.60;;;19.90;46.60;;;;;;5056097;28;21197;-66
2020/12/31 03:37:36;;;;;;;2.00;1.40;;;19.90;46.80;;;;;;5056755;28;20481;-66
2020/12/31 03:40:03;;;;;;;2.50;1.90;;;19.80;46.40;;;;;;5058507;28;20550;-67
2020/12/31 03:42:29;;;;;;;1.57;1.47;;;19.80;46.50;;;;;;5054006;28;20485;-66
2020/12/31 03:44:55;;;;;;;2.03;1.93;;;19.90;46.60;;;;;;5063891;28;20496;-68
2020/12/31 03:47:22;;;;;;;1.67;1.63;;;19.90;46.70;;;;;;5050218;28;20512;-66
2020/12/31 03:49:50;;;;;;;4.70;1.37;;;19.80;46.40;;;;;;5039825;28;21014;-67
2020/12/31 03:52:16;;;;;;;2.23;1.73;;;19.90;46.60;;;;;;5056334;28;20481;-67
2020/12/31 03:54:42;;;;;;;1.87;1.63;;;19.90;46.50;;;;;;5056214;28;20473;-67
2020/12/31 03:57:08;;;;;;;3.17;2.07;;;19.80;46.40;;;;;;5056280;28;20489;-67
2020/12/31 03:59:34;;;;;;;1.47;1.37;;;19.90;46.50;;;;;;5057298;28;20568;-67
2020/12/31 04:02:00;;;;;;;1.73;1.63;;;19.90;46.60;;;;;;5056311;28;20482;-67
2020/12/31 04:04:27;;;;;;;1.70;1.60;;;19.90;46.80;;;;;;5057161;28;21692;-67
2020/12/31 04:06:53;;;;;;;1.47;1.47;;;19.90;46.60;;;;;;5058367;28;20470;-67
2020/12/31 04:09:20;;;;;;;1.60;1.53;;;19.90;46.60;;;;;;5056636;28;20470;-66
2020/12/31 04:11:46;;;;;;;1.87;1.40;;;19.90;46.50;;;;;;5056359;28;21558;-67
2020/12/31 04:14:12;;;;;;;1.67;1.47;;;20.00;46.20;;;;;;5061116;28;20487;-66
2020/12/31 04:16:38;;;;;;;4.80;2.33;;;20.10;46.10;;;;;;5056039;28;20485;-67
2020/12/31 04:19:04;;;;;;;1.67;1.30;;;20.10;45.80;;;;;;5057203;28;20482;-67
2020/12/31 04:21:31;;;;;;;1.93;1.83;;;20.20;45.80;;;;;;5056397;28;20482;-66
2020/12/31 04:23:57;;;;;;;2.10;2.00;;;20.20;45.60;;;;;;5056113;28;20551;-66
2020/12/31 04:26:23;;;;;;;1.77;1.67;;;20.20;45.60;;;;;;5055979;28;20485;-67
2020/12/31 04:28:50;;;;;;;1.87;1.77;;;20.20;45.60;;;;;;5056991;28;20477;-67
2020/12/31 04:31:16;;;;;;;1.57;1.57;;;20.20;45.60;;;;;;5056206;28;20482;-67
2020/12/31 04:33:42;;;;;;;2.13;2.03;;;20.20;45.50;;;;;;5048541;28;20489;-67
2020/12/31 04:36:08;;;;;;;2.60;2.40;;;20.20;46.30;;;;;;5068211;28;20486;-67
2020/12/31 04:38:35;;;;;;;2.03;1.93;;;20.10;45.30;;;;;;5054372;28;20474;-67
2020/12/31 04:41:01;;;;;;;2.10;2.00;;;20.10;45.50;;;;;;5056708;28;21510;-67
2020/12/31 04:43:28;;;;;;;2.27;2.03;;;20.10;45.50;;;;;;5055661;28;20553;-67
2020/12/31 04:45:54;;;;;;;2.27;1.80;;;20.20;45.60;;;;;;5055485;28;20485;-68
2020/12/31 04:48:26;;;;;;;2.80;2.70;;;20.10;45.60;;;;;;5052791;28;21046;-67
2020/12/31 04:50:52;;;;;;;2.67;2.10;;;20.10;45.60;;;;;;5045492;28;20565;-66
2020/12/31 04:53:18;;;;;;;2.23;2.13;;;20.10;45.60;;;;;;5055705;28;20485;-67
2020/12/31 04:55:46;;;;;;;5.57;2.30;;;20.10;45.70;;;;;;5060544;28;20520;-66
2020/12/31 04:58:13;;;;;;;1.87;1.67;;;20.10;45.70;;;;;;5058065;28;21330;-67
2020/12/31 05:00:39;;;;;;;2.00;1.90;;;20.10;45.70;;;;;;5056703;28;20539;-67
2020/12/31 05:03:06;;;;;;;1.93;1.87;;;20.10;45.70;;;;;;5057984;28;20512;-67
2020/12/31 05:05:32;;;;;;;1.70;1.60;;;20.10;45.90;;;;;;5059514;28;20489;-68
2020/12/31 05:07:58;;;;;;;1.90;1.90;;;20.10;46.00;;;;;;5058867;28;20491;-67
2020/12/31 05:10:25;;;;;;;2.13;2.03;;;20.10;45.90;;;;;;5060095;28;20554;-67
2020/12/31 05:12:58;;;;;;;2.13;2.03;;;20.20;45.80;;;;;;5060223;28;20492;-66
2020/12/31 05:15:35;;;;;;;1.60;1.50;;;20.10;45.60;;;;;;5052097;28;20564;-66
2020/12/31 05:18:18;;;;;;;3.27;2.10;;;20.20;45.60;;;;;;5061842;28;20488;-67
2020/12/31 05:20:46;;;;;;;1.60;1.50;;;20.20;45.70;;;;;;5053649;28;21241;-66
2020/12/31 05:23:12;;;;;;;1.47;1.37;;;20.20;45.60;;;;;;5071233;28;20485;-66
2020/12/31 05:25:38;;;;;;;1.70;1.70;;;20.20;45.60;;;;;;5038854;28;20479;-67
2020/12/31 05:28:20;;;;;;;1.77;1.67;;;20.30;45.60;;;;;;5027404;28;20478;-67
2020/12/31 05:30:47;;;;;;;1.93;1.83;;;20.30;45.50;;;;;;5046445;28;20486;-67
2020/12/31 05:33:13;;;;;;;1.80;1.70;;;20.30;45.50;;;;;;5057534;28;20486;-66
2020/12/31 05:35:39;;;;;;;1.80;1.70;;;20.30;45.40;;;;;;5059984;28;20650;-66
2020/12/31 05:38:14;;;;;;;1.80;1.70;;;20.30;45.40;;;;;;5056082;28;20520;-67
2020/12/31 05:40:47;;;;;;;1.90;1.83;;;20.30;45.50;;;;;;5057001;28;20482;-66
2020/12/31 05:43:19;;;;;;;2.13;2.03;;;20.30;45.40;;;;;;5056982;28;20564;-66
2020/12/31 05:45:45;;;;;;;1.67;1.57;;;20.30;45.30;;;;;;5059343;28;20482;-67
2020/12/31 05:48:11;;;;;;;2.43;2.23;;;20.30;45.20;;;;;;5057173;28;20482;-67
2020/12/31 05:50:37;;;;;;;1.73;1.53;;;20.30;45.20;;;;;;5058837;28;20546;-67
2020/12/31 05:53:03;;;;;;;3.23;1.80;;;20.30;45.20;;;;;;5059399;28;20535;-66
2020/12/31 05:55:31;;;;;;;1.87;1.77;;;20.40;45.30;;;;;;5065022;28;21024;-66
2020/12/31 05:57:57;;;;;;;2.60;2.17;;;20.40;45.30;;;;;;5053707;28;20543;-67
2020/12/31 06:00:25;;;;;;;2.33;2.23;;;20.40;45.20;;;;;;5070659;28;20485;-67
2020/12/31 06:02:52;;;;;;;1.80;1.70;;;20.40;45.10;;;;;;5043961;28;20820;-66
2020/12/31 06:05:19;;;;;;;1.93;1.83;;;20.50;45.20;;;;;;5056883;28;20498;-66
2020/12/31 06:07:46;;;;;;;2.90;2.00;;;20.50;45.10;;;;;;5057341;28;20493;-68
2020/12/31 06:10:14;;;;;;;2.03;1.93;;;20.50;45.20;;;;;;5058172;28;20485;-67
2020/12/31 06:12:51;;;;;;;2.00;1.87;;;20.50;45.00;;;;;;5063238;28;21208;-67
2020/12/31 06:15:19;;;;;;;1.90;1.73;;;20.50;45.20;;;;;;5058282;28;20530;-67
2020/12/31 06:17:47;;;;;;;2.57;2.10;;;20.50;45.00;;;;;;5057360;28;20489;-67
2020/12/31 06:20:14;;;;;;;1.93;1.83;;;20.50;45.10;;;;;;5055084;28;20493;-66
2020/12/31 06:22:59;;;;;;;2.30;2.20;;;20.50;45.00;;;;;;5067096;28;20486;-67
2020/12/31 06:25:49;;;;;;;2.50;2.17;;;20.40;45.00;;;;;;5050621;28;20473;-66
2020/12/31 06:28:16;;;;;;;2.20;2.10;;;20.40;45.10;;;;;;5029174;28;20902;-67
2020/12/31 06:30:44;;;;;;;2.67;2.47;;;20.50;45.10;;;;;;5052879;28;20545;-66
2020/12/31 06:33:24;;;;;;;1.67;1.57;;;20.50;45.10;;;;;;5063285;28;20488;-68
2020/12/31 06:35:54;;;;;;;1.93;1.83;;;20.50;45.10;;;;;;5055640;28;20478;-67
2020/12/31 06:38:34;;;;;;;2.30;2.13;;;20.50;45.00;;;;;;5045448;28;21027;-67
2020/12/31 06:41:00;;;;;;;2.23;2.03;;;20.50;45.10;;;;;;5057387;28;21171;-66
2020/12/31 06:43:33;;;;;;;1.90;1.80;;;20.50;45.10;;;;;;5057736;28;20976;-67
2020/12/31 06:46:00;;;;;;;1.80;1.70;;;20.40;45.00;;;;;;5061415;28;20481;-67
2020/12/31 06:48:39;;;;;;;2.20;2.10;;;20.40;45.10;;;;;;5058232;28;20999;-67
2020/12/31 06:51:09;;;;;;;3.47;2.17;;;20.40;45.20;;;;;;5057627;28;20485;-66
2020/12/31 06:53:36;;;;;;;1.97;1.87;;;20.40;45.10;;;;;;5059984;28;20489;-67
2020/12/31 06:56:04;;;;;;;3.20;2.50;;;20.40;45.00;;;;;;5059845;28;20489;-67
2020/12/31 06:58:30;;;;;;;2.60;2.40;;;20.40;45.10;;;;;;5056185;28;20485;-67
2020/12/31 07:00:57;;;;;;;7.50;2.13;;;20.30;45.10;;;;;;5058237;28;20490;-67
2020/12/31 07:03:46;;;;;;;1.67;1.67;;;20.30;45.10;;;;;;5056844;28;21125;-66
2020/12/31 07:06:33;;;;;;;2.00;1.90;;;20.30;45.10;;;;;;5060311;28;20511;-67
2020/12/31 07:09:01;;;;;;;1.83;1.73;;;20.30;45.20;;;;;;5047986;28;20840;-67
2020/12/31 07:11:37;;;;;;;2.00;1.90;;;20.30;45.20;;;;;;5056334;28;20490;-68
2020/12/31 07:14:19;;;;;;;2.43;2.33;;;20.30;45.00;;;;;;5056534;28;20496;-67
2020/12/31 07:16:46;;;;;;;1.90;1.80;;;20.30;45.10;;;;;;5057950;28;21226;-67
2020/12/31 07:19:13;;;;;;;2.30;2.10;;;20.30;45.10;;;;;;5056285;28;20488;-67
2020/12/31 07:21:39;;;;;;;2.47;2.30;;;20.30;45.10;;;;;;5056518;28;20827;-67
2020/12/31 07:24:22;;;;;;;2.10;2.00;;;20.30;45.10;;;;;;5056409;28;20489;-68
2020/12/31 07:26:49;;;;;;;2.07;1.97;;;20.30;45.20;;;;;;5055785;28;20915;-68
2020/12/31 07:29:24;;;;;;;2.00;1.90;;;20.30;45.30;;;;;;5056392;28;20547;-67
2020/12/31 07:31:50;;;;;;;2.27;2.07;;;20.30;45.20;;;;;;5056910;28;20611;-67
2020/12/31 07:34:22;;;;;;;1.93;1.83;;;20.30;45.20;;;;;;5057529;28;20484;-67
2020/12/31 07:37:02;;;;;;;2.07;1.97;;;20.30;45.20;;;;;;5056416;28;20488;-67
2020/12/31 07:39:28;;;;;;;2.37;1.90;;;20.30;45.20;;;;;;5050645;28;20478;-68
2020/12/31 07:42:14;;;;;;;2.63;2.40;;;20.30;45.20;;;;;;5057090;28;20482;-67
2020/12/31 07:44:53;;;;;;;3.17;2.50;;;20.30;45.20;;;;;;5057226;28;20834;-67
2020/12/31 07:47:20;;;;;;;2.83;2.63;;;20.30;45.10;;;;;;5055734;28;20877;-67
2020/12/31 07:49:48;;;;;;;3.20;2.90;;;20.30;45.20;;;;;;5056477;28;20477;-67
2020/12/31 07:52:14;;;;;;;1.87;1.77;;;20.30;45.20;;;;;;5056547;28;20505;-67
2020/12/31 07:54:40;;;;;;;1.77;1.67;;;20.30;45.20;;;;;;5057474;28;21448;-68
2020/12/31 07:57:09;;;;;;;2.33;2.13;;;20.30;45.20;;;;;;5054525;28;20558;-67
2020/12/31 07:59:42;;;;;;;2.00;1.90;;;20.30;45.20;;;;;;5046975;28;20487;-67
2020/12/31 08:02:08;;;;;;;1.83;1.70;;;20.30;45.20;;;;;;5054426;28;21211;-67
2020/12/31 08:04:35;;;;;;;2.80;2.30;;;20.30;45.20;;;;;;5055062;28;20481;-67
2020/12/31 08:07:03;;;;;;;2.47;2.27;;;20.30;45.30;;;;;;5053240;28;20488;-67
2020/12/31 08:09:29;;;;;;;2.40;2.30;;;20.30;45.50;;;;;;5055622;28;21060;-68
2020/12/31 08:11:56;;;;;;;1.90;1.90;;;20.30;45.40;;;;;;5053195;28;20489;-67
2020/12/31 08:14:22;;;;;;;1.50;1.40;;;20.30;45.50;;;;;;5055118;28;20477;-67
2020/12/31 08:16:59;;;;;;;2.03;1.93;;;20.30;45.50;;;;;;5048777;28;20489;-67
2020/12/31 08:19:25;;;;;;;2.10;2.00;;;20.30;45.50;;;;;;5050350;28;20520;-67
2020/12/31 08:21:51;;;;;;;1.70;1.60;;;20.30;45.60;;;;;;5051818;28;21509;-68
2020/12/31 08:24:18;;;;;;;1.73;1.70;;;20.30;45.70;;;;;;5057799;28;20478;-67
2020/12/31 08:26:55;;;;;;;1.87;1.77;;;20.30;45.40;;;;;;5053789;28;20515;-67
2020/12/31 08:29:21;;;;;;;1.73;1.70;;;20.20;45.40;;;;;;5055033;28;20478;-67
2020/12/31 08:31:48;;;;;;;2.07;1.97;;;20.20;45.50;;;;;;5058326;28;20477;-67
2020/12/31 08:34:14;;;;;;;1.90;1.80;;;20.20;45.50;;;;;;5046677;28;20489;-67
2020/12/31 08:36:40;;;;;;;1.90;1.77;;;20.20;45.50;;;;;;5067508;28;20491;-68
2020/12/31 08:39:08;;;;;;;3.83;2.10;;;20.20;45.60;;;;;;5055948;28;20486;-67
2020/12/31 08:41:35;;;;;;;2.10;2.00;;;20.20;45.60;;;;;;5059919;28;20477;-67
2020/12/31 08:44:02;;;;;;;1.93;1.83;;;20.10;45.50;;;;;;5059949;28;20489;-67
2020/12/31 08:46:28;;;;;;;3.33;1.80;;;20.10;45.50;;;;;;5060370;28;21064;-68
2020/12/31 08:48:54;;;;;;;1.80;1.70;;;20.10;45.60;;;;;;5059199;28;20966;-67
2020/12/31 08:51:21;;;;;;;1.80;1.70;;;20.10;45.70;;;;;;5059346;28;20470;-67
2020/12/31 08:53:48;;;;;;;1.63;1.53;;;20.10;45.60;;;;;;5058447;28;20484;-67
2020/12/31 08:56:14;;;;;;;1.57;1.50;;;20.10;45.80;;;;;;5060422;28;20485;-67
2020/12/31 08:58:41;;;;;;;1.77;1.67;;;20.10;45.80;;;;;;5059718;28;20497;-67
2020/12/31 09:01:07;;;;;;;1.60;1.50;;;20.10;46.00;;;;;;5058457;28;20488;-68
2020/12/31 09:03:33;;;;;;;1.30;1.30;;;20.10;46.00;;;;;;5058882;28;20481;-67
2020/12/31 09:06:00;;;;;;;1.70;1.60;;;20.00;46.00;;;;;;5059318;28;20505;-68
2020/12/31 09:08:27;;;;;;;1.50;1.50;;;20.10;46.20;;;;;;5059182;28;20494;-68
2020/12/31 09:11:00;;;;;;;1.20;1.20;;;20.00;46.10;;;;;;5049359;28;20485;-67
2020/12/31 09:13:26;;;;;;;1.60;1.50;;;20.00;46.20;;;;;;5047982;28;20538;-68
2020/12/31 09:16:10;;;;;;;1.60;1.27;;;20.00;46.10;;;;;;5060124;28;20492;-67
2020/12/31 09:18:36;;;;;;;2.00;1.90;;;20.00;46.00;;;;;;5054860;28;20533;-67
2020/12/31 09:21:02;;;;;;;2.00;1.90;;;20.00;46.00;;;;;;5059641;28;20495;-67
2020/12/31 09:23:28;;;;;;;1.40;1.40;;;19.90;46.00;;;;;;5058368;28;20466;-68
2020/12/31 09:25:55;;;;;;;1.40;1.30;;;19.90;46.10;;;;;;5061434;28;20478;-69
2020/12/31 09:28:22;;;;;;;1.80;1.70;;;19.90;46.00;;;;;;5052007;28;22115;-68
2020/12/31 09:30:49;;;;;;;1.40;1.40;;;19.90;45.90;;;;;;5066496;28;20474;-67
2020/12/31 09:33:18;;;;;;;1.40;1.30;;;20.00;46.00;;;;;;5058376;28;21252;-67
2020/12/31 09:35:44;;;;;;;1.47;1.47;;;19.90;45.90;;;;;;5052377;28;20500;-67
2020/12/31 09:38:10;;;;;;;1.50;1.40;;;20.00;46.10;;;;;;5061378;28;20542;-66
2020/12/31 09:40:36;;;;;;;1.60;1.60;;;19.90;45.90;;;;;;5057089;28;20514;-67
2020/12/31 09:43:02;;;;;;;1.53;1.43;;;19.90;45.90;;;;;;5052892;28;21375;-67
2020/12/31 09:45:29;;;;;;;1.30;1.30;;;19.90;46.00;;;;;;5055316;28;20470;-68
2020/12/31 09:47:56;;;;;;;0.93;0.93;;;19.90;46.00;;;;;;5056818;28;20478;-67
2020/12/31 09:50:23;;;;;;;1.23;1.23;;;19.90;46.10;;;;;;5055205;28;20497;-67
2020/12/31 09:52:49;;;;;;;1.77;1.60;;;19.90;46.00;;;;;;5052841;28;21800;-68
2020/12/31 09:55:15;;;;;;;1.40;1.40;;;20.00;46.10;;;;;;5057918;28;20855;-68
2020/12/31 09:57:41;;;;;;;1.50;1.40;;;19.90;46.00;;;;;;5056656;28;20546;-68
2020/12/31 10:00:08;;;;;;;1.30;1.30;;;19.90;46.20;;;;;;5052714;28;20482;-66
2020/12/31 10:02:34;;;;;;;2.23;1.80;;;20.00;46.30;;;;;;5058192;28;20472;-68
2020/12/31 10:05:00;;;;;;;1.10;1.10;;;19.90;46.50;;;;;;5053483;28;20481;-67
2020/12/31 10:07:27;;;;;;;1.67;1.60;;;19.90;46.40;;;;;;5057409;28;20474;-68
2020/12/31 10:09:53;;;;;;;1.03;1.03;;;19.90;46.50;;;;;;5048610;28;20528;-67
2020/12/31 10:12:20;;;;;;;1.40;1.30;;;19.90;46.50;;;;;;5052215;28;20493;-67
2020/12/31 10:14:46;;;;;;;1.47;1.37;;;19.80;46.40;;;;;;5055236;28;21009;-67
2020/12/31 10:17:12;;;;;;;1.23;1.23;;;19.90;46.60;;;;;;5059160;28;21647;-67
2020/12/31 10:19:38;;;;;;;1.33;1.33;;;19.90;46.50;;;;;;5044086;28;20492;-67
2020/12/31 10:22:05;;;;;;;1.33;1.33;;;19.90;46.50;;;;;;5064260;28;21001;-68
2020/12/31 10:24:32;;;;;;;1.00;1.00;;;19.80;47.10;;;;;;5058165;28;20480;-67
2020/12/31 10:26:58;;;;;;;1.47;1.37;;;19.80;46.30;;;;;;5056833;28;20485;-67
2020/12/31 10:29:24;;;;;;;1.30;1.30;;;19.90;46.40;;;;;;5056503;28;20481;-67
2020/12/31 10:31:51;;;;;;;1.50;1.50;;;19.80;46.30;;;;;;5058649;28;20504;-67
2020/12/31 10:34:17;;;;;;;1.50;1.40;;;19.80;46.20;;;;;;5056920;28;20490;-67
2020/12/31 10:36:48;;;;;;;1.40;1.30;;;19.90;46.20;;;;;;5059321;28;20480;-67
2020/12/31 10:39:14;;;;;;;0.97;0.97;;;19.80;46.20;;;;;;5054153;28;20587;-67
2020/12/31 10:41:41;;;;;;;1.50;1.50;;;19.90;46.20;;;;;;5058781;28;20474;-66
2020/12/31 10:44:08;;;;;;;1.10;1.10;;;19.90;46.30;;;;;;5057170;28;20948;-67
2020/12/31 10:46:34;;;;;;;1.40;1.37;;;19.90;46.40;;;;;;5057658;28;20493;-68
2020/12/31 10:49:00;;;;;;;0.97;0.97;;;19.90;46.40;;;;;;5057318;28;20496;-67
2020/12/31 10:51:26;;;;;;;1.40;1.40;;;19.90;46.50;;;;;;5057646;28;21000;-67
2020/12/31 10:53:52;;;;;;;1.23;1.13;;;19.90;46.50;;;;;;5055025;28;20507;-67
2020/12/31 10:56:19;;;;;;;1.00;1.00;;;19.90;46.50;;;;;;5055252;28;20480;-67
2020/12/31 10:58:46;;;;;;;1.30;1.30;;;19.90;46.50;;;;;;5055811;28;20543;-67
2020/12/31 11:01:13;;;;;;;0.90;0.90;;;19.90;46.30;;;;;;5057947;28;20489;-67
2020/12/31 11:03:40;;;;;;;1.00;1.00;;;19.90;46.20;;;;;;5054597;28;20480;-68
2020/12/31 11:06:06;;;;;;;1.77;1.67;;;19.90;46.40;;;;;;5054021;28;20489;-67
2020/12/31 11:08:32;;;;;;;0.80;0.80;;;19.90;46.50;;;;;;5057695;28;20493;-67
2020/12/31 11:10:58;;;;;;;1.07;0.97;;;19.80;46.40;;;;;;5055994;28;20482;-67
2020/12/31 11:13:25;;;;;;;1.30;1.30;;;19.80;46.30;;;;;;5057904;28;20627;-67
2020/12/31 11:15:52;;;;;;;1.03;1.03;;;19.80;46.40;;;;;;5057486;28;21052;-67
2020/12/31 11:18:18;;;;;;;1.30;1.20;;;19.80;46.40;;;;;;5057344;28;20485;-66
2020/12/31 11:20:45;;;;;;;1.17;1.10;;;19.80;46.40;;;;;;5056984;28;20488;-67
2020/12/31 11:23:11;;;;;;;1.30;1.30;;;19.80;46.40;;;;;;5057645;28;21369;-67
2020/12/31 11:25:37;;;;;;;1.07;1.07;;;19.90;46.60;;;;;;5056996;28;20853;-66
2020/12/31 11:28:03;;;;;;;1.17;1.17;;;19.90;46.60;;;;;;5056314;28;20619;-67
2020/12/31 11:30:29;;;;;;;1.03;1.03;;;19.80;46.50;;;;;;5056470;28;20477;-67
2020/12/31 11:32:56;;;;;;;1.00;0.87;;;19.80;46.40;;;;;;5045067;28;20485;-67
2020/12/31 11:35:23;;;;;;;0.70;0.70;;;19.80;46.40;;;;;;5054204;28;20469;-67
2020/12/31 11:37:49;;;;;;;1.33;1.20;;;19.80;46.50;;;;;;5057676;28;21080;-66
2020/12/31 11:40:15;;;;;;;1.53;1.43;;;19.80;46.50;;;;;;5055754;28;20896;-66
2020/12/31 11:42:41;;;;;;;0.93;0.93;;;19.80;46.50;;;;;;5055918;28;20513;-67
2020/12/31 11:45:08;;;;;;;1.00;1.00;;;19.90;46.40;;;;;;5056849;28;20482;-67
2020/12/31 11:47:34;;;;;;;0.80;0.80;;;19.90;46.30;;;;;;5056863;28;20895;-67
2020/12/31 11:50:01;;;;;;;0.80;0.80;;;19.90;46.60;;;;;;5057430;28;21628;-66
2020/12/31 11:52:28;;;;;;;1.13;1.13;;;19.90;46.40;;;;;;5044387;28;20571;-66
2020/12/31 11:54:54;;;;;;;2.40;1.30;;;19.90;46.20;;;;;;5056668;28;21077;-67
2020/12/31 11:57:20;;;;;;;1.43;1.33;;;19.80;46.20;;;;;;5056099;28;21788;-67
2020/12/31 11:59:47;;;;;;;0.93;0.93;;;19.90;46.40;;;;;;5057303;28;20892;-66
2020/12/31 12:02:13;;;;;;;1.43;1.43;;;19.90;46.20;;;;;;5055209;28;20487;-67
2020/12/31 12:04:39;;;;;;;0.87;0.87;;;19.90;46.20;;;;;;5057936;28;20485;-67
2020/12/31 12:07:06;;;;;;;1.03;1.03;;;19.90;46.30;;;;;;5058046;28;20490;-67
2020/12/31 12:09:33;;;;;;;0.80;0.80;;;19.90;46.60;;;;;;5064161;28;20481;-67
2020/12/31 12:11:59;;;;;;;1.70;0.80;;;19.90;46.50;;;;;;5061307;28;20494;-66
2020/12/31 12:14:25;;;;;;;1.30;1.23;;;19.80;46.40;;;;;;5059393;28;20485;-66
2020/12/31 12:16:51;;;;;;;2.10;1.23;;;19.80;46.40;;;;;;5061293;28;20490;-67
2020/12/31 12:19:17;;;;;;;1.03;1.03;;;19.80;46.40;;;;;;5059663;28;20486;-66
2020/12/31 12:21:43;;;;;;;0.80;0.80;;;19.80;46.40;;;;;;5060771;28;20539;-67
2020/12/31 12:24:11;;;;;;;1.17;1.07;;;19.80;46.40;;;;;;5058993;28;20494;-66
2020/12/31 12:26:37;;;;;;;0.97;0.97;;;19.80;46.50;;;;;;5060877;28;20485;-67
2020/12/31 12:29:04;;;;;;;1.07;0.80;;;19.80;47.20;;;;;;5060375;28;22041;-66
2020/12/31 12:31:31;;;;;;;1.20;1.20;;;19.80;46.40;;;;;;5061084;28;20474;-66
2020/12/31 12:33:57;;;;;;;1.00;1.00;;;19.80;46.40;;;;;;5043919;28;20491;-66
2020/12/31 12:36:24;;;;;;;1.00;1.00;;;19.80;46.40;;;;;;5059867;28;21093;-67
2020/12/31 12:38:50;;;;;;;0.83;0.73;;;19.80;46.40;;;;;;5059634;28;20477;-68
2020/12/31 12:41:17;;;;;;;1.13;1.13;;;19.80;46.50;;;;;;5060049;28;20497;-66
2020/12/31 12:43:43;;;;;;;1.30;1.30;;;19.80;46.50;;;;;;5059141;28;20474;-67
2020/12/31 12:46:12;;;;;;;1.43;1.33;;;19.80;46.40;;;;;;5060738;28;20492;-67
2020/12/31 12:48:38;;;;;;;1.30;1.30;;;19.80;46.40;;;;;;5057783;28;20488;-66